createdAt,value
2019-03-21T00:01:46.083Z,5.40
2019-03-21T00:04:16.034Z,5.40
2019-03-21T00:06:45.780Z,5.30
2019-03-21T00:09:17.597Z,5.20
2019-03-21T00:12:04.480Z,5.10
2019-03-21T00:14:43.278Z,5.00
2019-03-21T00:17:14.827Z,4.90
2019-03-21T00:19:44.624Z,4.80
2019-03-21T00:22:14.777Z,4.80
2019-03-21T00:24:44.853Z,4.70
2019-03-21T00:27:14.667Z,4.80
2019-03-21T00:29:44.910Z,4.80
2019-03-21T00:32:15.043Z,4.80
2019-03-21T00:34:44.737Z,4.70
2019-03-21T00:37:14.490Z,4.70
2019-03-21T00:39:44.220Z,4.60
2019-03-21T00:42:14.792Z,4.60
2019-03-21T00:44:44.591Z,4.70
2019-03-21T00:47:14.761Z,4.60
2019-03-21T00:49:47.306Z,4.60
2019-03-21T00:52:20.583Z,4.50
2019-03-21T00:54:50.835Z,4.50
2019-03-21T00:57:20.654Z,4.30
2019-03-21T00:59:50.463Z,4.20
2019-03-21T01:02:20.331Z,4.20
2019-03-21T01:04:50.093Z,4.10
2019-03-21T01:07:19.890Z,4.10
2019-03-21T01:09:50.135Z,4.10
2019-03-21T01:12:23.891Z,4.10
2019-03-21T01:14:54.097Z,4.10
2019-03-21T01:17:23.876Z,4.10
2019-03-21T01:19:53.704Z,4.20
2019-03-21T01:22:23.563Z,4.10
2019-03-21T01:24:53.395Z,4.10
2019-03-21T01:27:23.848Z,4.00
2019-03-21T01:29:53.936Z,4.00
2019-03-21T01:32:23.771Z,4.00
2019-03-21T01:34:53.756Z,4.00
2019-03-21T01:37:24.343Z,3.90
2019-03-21T01:40:01.554Z,3.90
2019-03-21T01:42:31.452Z,3.90
2019-03-21T01:45:01.246Z,3.80
2019-03-21T01:47:31.059Z,3.80
2019-03-21T01:50:00.843Z,3.70
2019-03-21T01:52:30.996Z,3.70
2019-03-21T01:55:00.757Z,3.60
2019-03-21T01:57:31.340Z,3.70
2019-03-21T02:00:01.704Z,3.70
2019-03-21T02:02:32.327Z,3.70
2019-03-21T02:05:02.159Z,3.70
2019-03-21T02:07:31.949Z,3.70
2019-03-21T02:10:02.125Z,3.70
2019-03-21T02:12:32.693Z,3.70
2019-03-21T02:15:03.256Z,3.70
2019-03-21T02:17:36.151Z,3.70
2019-03-21T02:20:06.455Z,3.60
2019-03-21T02:22:36.363Z,3.60
2019-03-21T02:25:08.542Z,3.50
2019-03-21T02:27:38.338Z,3.50
2019-03-21T02:30:11.034Z,3.50
2019-03-21T02:32:40.987Z,3.50
2019-03-21T02:35:10.769Z,3.40
2019-03-21T02:37:40.956Z,3.30
2019-03-21T02:40:13.620Z,3.30
2019-03-21T02:42:43.415Z,3.30
2019-03-21T02:45:14.662Z,3.30
2019-03-21T02:47:46.111Z,3.20
2019-03-21T02:50:21.928Z,3.20
2019-03-21T02:52:51.715Z,3.20
2019-03-21T02:55:21.855Z,3.20
2019-03-21T02:57:52.342Z,3.10
2019-03-21T03:00:23.359Z,3.10
2019-03-21T03:02:55.388Z,3.00
2019-03-21T03:05:26.675Z,2.80
2019-03-21T03:07:56.722Z,2.80
2019-03-21T03:10:36.947Z,2.80
2019-03-21T03:13:06.810Z,2.80
2019-03-21T03:15:37.022Z,2.70
2019-03-21T03:18:07.685Z,2.70
2019-03-21T03:20:37.569Z,2.80
2019-03-21T03:23:07.688Z,2.80
2019-03-21T03:25:37.609Z,2.80
2019-03-21T03:28:11.319Z,2.70
2019-03-21T03:30:41.322Z,2.70
2019-03-21T03:33:11.211Z,2.70
2019-03-21T03:35:41.040Z,2.70
2019-03-21T03:38:15.432Z,2.60
2019-03-21T03:40:50.281Z,2.60
2019-03-21T03:43:21.371Z,2.60
2019-03-21T03:45:51.191Z,2.50
2019-03-21T03:48:21.355Z,2.50
2019-03-21T03:50:51.214Z,2.50
2019-03-21T03:53:21.004Z,2.40
2019-03-21T03:55:51.163Z,2.40
2019-03-21T03:58:26.292Z,2.30
2019-03-21T04:00:57.732Z,2.30
2019-03-21T04:03:27.520Z,2.30
2019-03-21T04:05:57.367Z,2.20
2019-03-21T04:08:27.117Z,2.20
2019-03-21T04:10:57.095Z,2.30
2019-03-21T04:13:26.778Z,2.30
2019-03-21T04:15:56.557Z,2.40
2019-03-21T04:18:34.729Z,2.40
2019-03-21T04:21:05.165Z,2.40
2019-03-21T04:23:45.295Z,2.30
2019-03-21T04:26:24.272Z,2.20
2019-03-21T04:28:54.063Z,2.20
2019-03-21T04:31:24.637Z,2.10
2019-03-21T04:33:56.143Z,2.10
2019-03-21T04:36:25.866Z,2.10
2019-03-21T04:38:55.983Z,2.10
2019-03-21T04:41:25.806Z,2.10
2019-03-21T04:43:55.651Z,2.10
2019-03-21T04:46:25.465Z,2.10
2019-03-21T04:49:05.027Z,2.00
2019-03-21T04:51:42.065Z,2.00
2019-03-21T04:54:11.763Z,2.00
2019-03-21T04:56:41.595Z,1.90
2019-03-21T04:59:11.384Z,1.80
2019-03-21T05:01:41.143Z,1.60
2019-03-21T05:04:10.887Z,1.60
2019-03-21T05:06:40.562Z,1.40
2019-03-21T05:09:13.967Z,1.40
2019-03-21T05:11:43.772Z,1.40
2019-03-21T05:14:13.540Z,1.40
2019-03-21T05:16:50.389Z,1.40
2019-03-21T05:19:19.949Z,1.40
2019-03-21T05:21:50.166Z,1.40
2019-03-21T05:24:20.422Z,1.40
2019-03-21T05:26:50.611Z,1.50
2019-03-21T05:29:20.428Z,1.60
2019-03-21T05:31:50.180Z,1.70
2019-03-21T05:34:19.913Z,1.90
2019-03-21T05:36:50.514Z,2.00
2019-03-21T05:39:20.636Z,2.10
2019-03-21T05:41:58.777Z,2.20
2019-03-21T05:44:35.712Z,2.20
2019-03-21T05:47:05.576Z,2.20
2019-03-21T05:49:35.446Z,2.20
2019-03-21T05:52:06.076Z,2.20
2019-03-21T05:54:35.833Z,2.30
2019-03-21T05:57:06.276Z,2.30
2019-03-21T05:59:36.116Z,2.40
2019-03-21T06:02:06.181Z,2.40
2019-03-21T06:04:35.994Z,2.50
2019-03-21T06:07:18.736Z,2.50
2019-03-21T06:09:48.480Z,2.60
2019-03-21T06:12:18.312Z,2.60
2019-03-21T06:14:52.535Z,2.60
2019-03-21T06:17:22.460Z,2.60
2019-03-21T06:20:19.471Z,2.60
2019-03-21T06:23:35.859Z,2.70
2019-03-21T06:26:20.224Z,2.70
2019-03-21T06:28:51.233Z,2.60
2019-03-21T06:31:21.064Z,2.70
2019-03-21T06:33:50.887Z,2.80
2019-03-21T06:36:20.746Z,2.80
2019-03-21T06:38:50.747Z,2.90
2019-03-21T06:41:20.663Z,3.00
2019-03-21T06:43:50.746Z,3.00
2019-03-21T06:46:21.343Z,3.10
2019-03-21T06:48:51.244Z,3.30
2019-03-21T06:51:21.161Z,3.30
2019-03-21T06:53:54.713Z,3.40
2019-03-21T06:56:24.890Z,3.50
2019-03-21T06:58:54.698Z,3.60
2019-03-21T07:01:24.585Z,3.70
2019-03-21T07:03:54.335Z,3.90
2019-03-21T07:06:24.220Z,4.00
2019-03-21T07:08:53.951Z,4.10
2019-03-21T07:11:23.623Z,4.20
2019-03-21T07:13:57.637Z,4.30
2019-03-21T07:16:28.325Z,4.40
2019-03-21T07:18:58.487Z,4.40
2019-03-21T07:21:28.625Z,4.50
2019-03-21T07:23:58.339Z,4.50
2019-03-21T07:26:29.519Z,4.60
2019-03-21T07:29:01.399Z,4.60
2019-03-21T07:31:31.167Z,4.70
2019-03-21T07:34:00.919Z,4.80
2019-03-21T07:36:30.883Z,4.90
2019-03-21T07:39:00.626Z,5.00
2019-03-21T07:41:30.374Z,5.10
2019-03-21T07:44:11.992Z,5.30
2019-03-21T07:46:44.518Z,5.40
2019-03-21T07:49:14.691Z,5.60
2019-03-21T07:51:45.234Z,5.80
2019-03-21T07:54:15.096Z,5.90
2019-03-21T07:56:44.781Z,5.90
2019-03-21T07:59:14.915Z,6.00
2019-03-21T08:01:45.003Z,6.10
2019-03-21T08:04:14.726Z,6.20
2019-03-21T08:06:44.496Z,6.20
2019-03-21T08:09:18.839Z,6.30
2019-03-21T08:11:54.880Z,6.40
2019-03-21T08:14:24.719Z,6.50
2019-03-21T08:16:54.446Z,6.60
2019-03-21T08:19:25.806Z,6.80
2019-03-21T08:21:55.458Z,6.90
2019-03-21T08:24:26.286Z,7.00
2019-03-21T08:26:56.042Z,7.00
2019-03-21T08:29:25.838Z,7.10
2019-03-21T08:31:57.462Z,7.10
2019-03-21T08:34:31.054Z,7.20
2019-03-21T08:37:00.771Z,7.30
2019-03-21T08:39:31.531Z,7.50
2019-03-21T08:42:01.291Z,7.60
2019-03-21T08:44:30.978Z,7.70
2019-03-21T08:47:00.688Z,7.80
2019-03-21T08:49:30.436Z,7.90
2019-03-21T08:52:00.142Z,8.10
2019-03-21T08:54:29.831Z,8.20
2019-03-21T08:57:00.592Z,8.40
2019-03-21T08:59:31.683Z,8.50
2019-03-21T09:02:02.944Z,8.60
2019-03-21T09:04:32.607Z,8.80
2019-03-21T09:07:02.299Z,8.90
2019-03-21T09:09:32.048Z,9.10
2019-03-21T09:12:01.780Z,9.30
2019-03-21T09:14:31.529Z,9.40
2019-03-21T09:17:02.255Z,9.60
2019-03-21T09:19:32.010Z,9.70
2019-03-21T09:22:06.733Z,9.80
2019-03-21T09:24:37.243Z,9.80
2019-03-21T09:27:06.947Z,9.90
2019-03-21T09:29:37.266Z,10.00
2019-03-21T09:32:07.150Z,10.20
2019-03-21T09:34:38.162Z,10.30
2019-03-21T09:37:07.904Z,10.50
2019-03-21T09:39:37.716Z,10.70
2019-03-21T09:42:08.376Z,10.80
2019-03-21T09:44:38.630Z,10.90
2019-03-21T09:47:10.130Z,11.00
2019-03-21T09:49:49.916Z,11.00
2019-03-21T09:52:19.684Z,11.10
2019-03-21T09:54:49.405Z,11.20
2019-03-21T09:57:19.092Z,11.30
2019-03-21T09:59:49.971Z,11.50
2019-03-21T10:02:19.855Z,11.70
2019-03-21T10:04:49.703Z,11.90
2019-03-21T10:07:20.300Z,12.00
2019-03-21T10:09:50.445Z,12.10
2019-03-21T10:12:24.475Z,12.30
2019-03-21T10:14:54.242Z,12.40
2019-03-21T10:17:25.052Z,12.60
2019-03-21T10:19:54.807Z,12.80
2019-03-21T10:22:24.975Z,12.90
2019-03-21T10:24:54.745Z,13.00
2019-03-21T10:27:24.508Z,13.10
2019-03-21T10:29:54.643Z,13.20
2019-03-21T10:32:24.616Z,13.30
2019-03-21T10:34:54.794Z,13.40
2019-03-21T10:37:28.958Z,13.60
2019-03-21T10:39:58.788Z,13.80
2019-03-21T10:42:28.899Z,13.90
2019-03-21T10:44:58.901Z,14.00
2019-03-21T10:47:29.031Z,14.30
2019-03-21T10:49:59.440Z,14.50
2019-03-21T10:52:29.199Z,14.70
2019-03-21T10:54:59.196Z,14.80
2019-03-21T10:57:28.888Z,14.80
2019-03-21T11:00:01.745Z,15.00
2019-03-21T11:02:36.844Z,15.10
2019-03-21T11:05:07.011Z,15.30
2019-03-21T11:07:38.263Z,15.40
2019-03-21T11:10:08.690Z,15.60
2019-03-21T11:12:38.401Z,15.70
2019-03-21T11:15:08.547Z,15.80
2019-03-21T11:17:38.356Z,16.00
2019-03-21T11:20:08.914Z,16.20
2019-03-21T11:22:40.791Z,16.40
2019-03-21T11:25:26.642Z,16.60
2019-03-21T11:27:56.578Z,16.70
2019-03-21T11:30:31.267Z,16.80
2019-03-21T11:33:02.151Z,16.90
2019-03-21T11:35:32.266Z,17.20
2019-03-21T11:38:02.409Z,17.20
2019-03-21T11:40:32.558Z,18.00
2019-03-21T11:43:03.410Z,21.10
2019-03-21T11:45:33.180Z,24.30
2019-03-21T11:48:07.421Z,26.50
2019-03-21T11:50:42.479Z,27.80
2019-03-21T11:53:12.663Z,29.00
2019-03-21T11:55:42.458Z,30.50
2019-03-21T11:58:12.280Z,31.50
2019-03-21T12:00:44.888Z,31.80
2019-03-21T12:03:14.059Z,32.00
2019-03-21T12:05:43.868Z,32.60
2019-03-21T12:08:13.680Z,32.60
2019-03-21T12:10:46.631Z,32.60
2019-03-21T12:13:16.337Z,32.90
2019-03-21T12:15:46.967Z,32.80
2019-03-21T12:18:17.415Z,32.90
2019-03-21T12:20:47.211Z,33.20
2019-03-21T12:23:16.967Z,33.20
2019-03-21T12:25:46.942Z,33.40
2019-03-21T12:28:16.743Z,33.70
2019-03-21T12:30:46.913Z,33.70
2019-03-21T12:33:17.000Z,33.90
2019-03-21T12:35:46.756Z,34.60
2019-03-21T12:38:17.022Z,34.40
2019-03-21T12:40:46.807Z,34.90
2019-03-21T12:43:16.529Z,35.00
2019-03-21T12:45:46.297Z,35.50
2019-03-21T12:48:16.492Z,36.30
2019-03-21T12:50:46.271Z,36.90
2019-03-21T12:53:16.111Z,36.60
2019-03-21T12:55:45.983Z,36.80
2019-03-21T12:58:15.692Z,36.60
2019-03-21T13:00:45.823Z,36.10
2019-03-21T13:03:15.987Z,35.70
2019-03-21T13:05:45.842Z,34.60
2019-03-21T13:08:17.116Z,35.00
2019-03-21T13:10:46.849Z,34.90
2019-03-21T13:13:16.725Z,34.30
2019-03-21T13:15:48.144Z,34.30
2019-03-21T13:18:18.600Z,35.20
2019-03-21T13:20:48.809Z,35.70
2019-03-21T13:23:18.600Z,35.70
2019-03-21T13:25:48.255Z,36.30
2019-03-21T13:28:20.156Z,35.80
2019-03-21T13:30:56.325Z,35.70
2019-03-21T13:33:26.119Z,34.60
2019-03-21T13:35:56.084Z,33.90
2019-03-21T13:38:26.294Z,32.30
2019-03-21T13:40:56.404Z,30.70
2019-03-21T13:43:26.658Z,29.80
2019-03-21T13:45:56.879Z,29.40
2019-03-21T13:48:26.895Z,29.80
2019-03-21T13:50:56.686Z,30.50
2019-03-21T13:53:31.139Z,32.00
2019-03-21T13:56:01.010Z,32.70
2019-03-21T13:58:31.042Z,32.00
2019-03-21T14:01:25.989Z,30.80
2019-03-21T14:03:55.767Z,30.30
2019-03-21T14:06:25.632Z,31.10
2019-03-21T14:08:55.912Z,31.90
2019-03-21T14:11:25.932Z,32.20
2019-03-21T14:14:01.928Z,32.00
2019-03-21T14:16:32.152Z,30.90
2019-03-21T14:19:01.976Z,29.70
2019-03-21T14:21:32.143Z,30.00
2019-03-21T14:24:03.267Z,30.30
2019-03-21T14:26:33.128Z,30.40
2019-03-21T14:29:12.200Z,30.60
2019-03-21T14:31:34.382Z,30.50
2019-03-21T14:34:04.151Z,29.90
2019-03-21T14:36:33.955Z,30.00
2019-03-21T14:39:05.691Z,29.70
2019-03-21T14:41:35.572Z,30.40
2019-03-21T14:44:07.122Z,31.80
2019-03-21T14:46:37.149Z,32.50
2019-03-21T14:49:06.888Z,32.60
2019-03-21T14:51:36.735Z,32.40
2019-03-21T14:54:06.599Z,31.10
2019-03-21T14:56:36.424Z,29.30
2019-03-21T14:59:06.280Z,28.70
2019-03-21T15:01:35.989Z,27.60
2019-03-21T15:04:05.694Z,26.30
2019-03-21T15:06:35.437Z,26.50
2019-03-21T15:09:07.194Z,27.50
2019-03-21T15:11:37.037Z,27.90
2019-03-21T15:14:06.991Z,29.30
2019-03-21T15:16:36.872Z,30.70
2019-03-21T15:19:06.697Z,31.80
2019-03-21T15:21:36.417Z,31.90
2019-03-21T15:24:06.552Z,32.40
2019-03-21T15:26:36.323Z,32.70
2019-03-21T15:29:06.059Z,33.20
2019-03-21T15:31:35.824Z,33.70
2019-03-21T15:34:07.347Z,34.20
2019-03-21T15:36:37.110Z,34.30
2019-03-21T15:39:08.607Z,34.10
2019-03-21T15:41:38.957Z,33.70
2019-03-21T15:44:09.261Z,32.70
2019-03-21T15:46:39.072Z,31.40
2019-03-21T15:49:09.318Z,29.20
2019-03-21T15:51:39.586Z,28.00
2019-03-21T15:54:09.471Z,27.30
2019-03-21T15:56:39.315Z,26.20
2019-03-21T15:59:09.169Z,25.80
2019-03-21T16:01:38.924Z,24.90
2019-03-21T16:04:08.643Z,23.90
2019-03-21T16:06:38.591Z,23.60
2019-03-21T16:09:08.912Z,24.00
2019-03-21T16:11:38.678Z,25.60
2019-03-21T16:14:08.980Z,27.20
2019-03-21T16:16:38.786Z,28.30
2019-03-21T16:19:08.499Z,28.30
2019-03-21T16:21:41.882Z,27.20
2019-03-21T16:24:11.698Z,26.20
2019-03-21T16:26:41.963Z,25.20
2019-03-21T16:29:13.072Z,24.10
2019-03-21T16:31:43.118Z,23.50
2019-03-21T16:34:12.903Z,23.40
2019-03-21T16:36:44.173Z,23.20
2019-03-21T16:39:16.695Z,22.60
2019-03-21T16:41:47.963Z,21.40
2019-03-21T16:44:17.996Z,20.30
2019-03-21T16:46:48.017Z,19.50
2019-03-21T16:49:17.711Z,19.10
2019-03-21T16:51:47.685Z,19.20
2019-03-21T16:54:17.840Z,19.20
2019-03-21T16:56:47.837Z,19.20
2019-03-21T16:59:17.752Z,19.40
2019-03-21T17:01:47.449Z,20.00
2019-03-21T17:04:17.417Z,20.60
2019-03-21T17:06:47.367Z,20.80
2019-03-21T17:09:17.429Z,21.00
2019-03-21T17:11:48.736Z,21.30
2019-03-21T17:14:18.866Z,21.40
2019-03-21T17:16:49.022Z,21.40
2019-03-21T17:19:19.193Z,21.20
2019-03-21T17:21:48.958Z,20.80
2019-03-21T17:24:28.816Z,20.10
2019-03-21T17:26:50.175Z,18.90
2019-03-21T17:29:20.150Z,17.80
2019-03-21T17:31:49.883Z,17.00
2019-03-21T17:34:19.600Z,16.30
2019-03-21T17:36:49.516Z,15.80
2019-03-21T17:39:19.478Z,15.30
2019-03-21T17:41:50.044Z,15.00
2019-03-21T17:44:19.899Z,14.80
2019-03-21T17:46:51.406Z,14.60
2019-03-21T17:49:21.297Z,14.50
2019-03-21T17:51:51.213Z,14.30
2019-03-21T17:54:21.564Z,14.20
2019-03-21T17:56:51.416Z,14.10
2019-03-21T17:59:21.210Z,14.00
2019-03-21T18:01:51.879Z,13.90
2019-03-21T18:04:22.619Z,13.80
2019-03-21T18:06:52.300Z,13.80
2019-03-21T18:09:22.119Z,13.70
2019-03-21T18:11:51.872Z,13.70
2019-03-21T18:14:22.514Z,13.60
2019-03-21T18:16:52.768Z,13.60
2019-03-21T18:19:24.323Z,13.50
2019-03-21T18:21:54.291Z,13.40
2019-03-21T18:24:24.985Z,13.40
2019-03-21T18:26:54.984Z,13.30
2019-03-21T18:29:24.751Z,13.20
2019-03-21T18:31:54.539Z,13.20
2019-03-21T18:34:24.432Z,13.10
2019-03-21T18:36:55.447Z,13.00
2019-03-21T18:39:25.541Z,13.00
2019-03-21T18:41:55.707Z,13.00
2019-03-21T18:44:25.526Z,12.90
2019-03-21T18:46:57.312Z,12.90
2019-03-21T18:49:28.484Z,12.80
2019-03-21T18:51:58.540Z,12.80
2019-03-21T18:54:28.266Z,12.80
2019-03-21T18:56:58.476Z,12.80
2019-03-21T18:59:28.527Z,12.70
2019-03-21T19:01:59.072Z,12.70
2019-03-21T19:04:29.884Z,12.60
2019-03-21T19:06:59.865Z,12.60
2019-03-21T19:09:29.846Z,12.50
2019-03-21T19:11:59.946Z,12.50
2019-03-21T19:14:29.872Z,12.50
2019-03-21T19:16:59.815Z,12.50
2019-03-21T19:19:29.502Z,12.40
2019-03-21T19:21:59.255Z,12.40
2019-03-21T19:24:29.319Z,12.30
2019-03-21T19:26:59.079Z,12.30
2019-03-21T19:29:28.975Z,12.30
2019-03-21T19:31:58.760Z,12.30
2019-03-21T19:34:28.505Z,12.30
2019-03-21T19:36:58.328Z,12.20
2019-03-21T19:39:28.279Z,12.30
2019-03-21T19:41:59.479Z,12.30
2019-03-21T19:44:29.424Z,12.30
2019-03-21T19:47:01.346Z,12.30
2019-03-21T19:49:30.947Z,12.30
2019-03-21T19:52:02.189Z,12.30
2019-03-21T19:54:31.935Z,12.30
2019-03-21T19:57:01.753Z,12.30
2019-03-21T19:59:32.096Z,12.30
2019-03-21T20:02:01.933Z,12.30
2019-03-21T20:04:31.676Z,12.30
2019-03-21T20:07:01.534Z,12.20
2019-03-21T20:09:31.348Z,12.20
2019-03-21T20:12:01.164Z,12.20
2019-03-21T20:14:31.032Z,12.20
2019-03-21T20:17:00.848Z,12.20
2019-03-21T20:19:30.654Z,12.20
2019-03-21T20:22:00.807Z,12.20
2019-03-21T20:24:30.657Z,12.10
2019-03-21T20:27:00.963Z,12.10
2019-03-21T20:29:30.704Z,12.00
2019-03-21T20:32:00.703Z,11.90
2019-03-21T20:34:30.538Z,11.80
2019-03-21T20:37:00.747Z,11.60
2019-03-21T20:39:30.912Z,11.30
2019-03-21T20:42:01.011Z,11.10
2019-03-21T20:44:32.221Z,10.90
2019-03-21T20:47:02.636Z,10.80
2019-03-21T20:49:32.997Z,10.70
2019-03-21T20:52:02.824Z,10.60
2019-03-21T20:54:32.584Z,10.50
2019-03-21T20:57:02.638Z,10.50
2019-03-21T20:59:32.433Z,10.40
2019-03-21T21:02:03.185Z,10.30
2019-03-21T21:04:33.156Z,10.30
2019-03-21T21:07:02.982Z,10.20
2019-03-21T21:09:32.864Z,10.10
2019-03-21T21:12:03.427Z,10.00
2019-03-21T21:14:33.316Z,10.00
2019-03-21T21:17:03.199Z,9.90
2019-03-21T21:19:33.463Z,9.90
2019-03-21T21:22:03.292Z,9.90
2019-03-21T21:24:33.008Z,9.80
2019-03-21T21:27:03.099Z,9.90
2019-03-21T21:29:32.903Z,9.90
2019-03-21T21:32:02.753Z,9.80
2019-03-21T21:34:32.627Z,9.80
2019-03-21T21:37:02.393Z,9.70
2019-03-21T21:39:32.327Z,9.70
2019-03-21T21:42:05.222Z,9.60
2019-03-21T21:44:35.146Z,9.60
2019-03-21T21:47:04.964Z,9.60
2019-03-21T21:49:34.816Z,9.50
2019-03-21T21:52:04.607Z,9.40
2019-03-21T21:54:34.455Z,9.30
2019-03-21T21:57:04.253Z,9.30
2019-03-21T21:59:34.753Z,9.30
2019-03-21T22:02:05.262Z,9.30
2019-03-21T22:04:35.253Z,9.30
2019-03-21T22:07:09.374Z,9.20
2019-03-21T22:09:40.952Z,9.20
2019-03-21T22:12:10.791Z,9.10
2019-03-21T22:14:43.989Z,9.00
2019-03-21T22:17:14.741Z,9.00
2019-03-21T22:19:55.447Z,9.00
2019-03-21T22:22:25.309Z,8.90
2019-03-21T22:24:55.112Z,8.90
2019-03-21T22:27:26.236Z,8.80
2019-03-21T22:29:57.250Z,8.80
2019-03-21T22:32:27.236Z,8.70
2019-03-21T22:34:57.153Z,8.70
2019-03-21T22:37:26.952Z,8.70
2019-03-21T22:39:56.883Z,8.70
2019-03-21T22:42:26.977Z,8.70
2019-03-21T22:45:00.877Z,8.70
2019-03-21T22:47:30.798Z,8.70
2019-03-21T22:50:00.606Z,8.70
2019-03-21T22:52:31.029Z,8.60
2019-03-21T22:55:04.583Z,8.50
2019-03-21T22:57:53.002Z,8.40
2019-03-21T23:00:30.081Z,8.30
2019-03-21T23:03:09.101Z,8.30
2019-03-21T23:05:39.654Z,8.20
2019-03-21T23:08:13.048Z,8.20
2019-03-21T23:10:45.148Z,8.20
2019-03-21T23:13:19.759Z,8.10
2019-03-21T23:15:49.603Z,8.10
2019-03-21T23:18:19.639Z,8.20
2019-03-21T23:20:49.735Z,8.30
2019-03-21T23:23:20.388Z,8.40
2019-03-21T23:25:50.222Z,8.60
2019-03-21T23:28:20.021Z,8.70
2019-03-21T23:30:49.856Z,8.70
2019-03-21T23:33:19.576Z,8.70
2019-03-21T23:35:49.309Z,8.70
2019-03-21T23:38:19.120Z,8.60
2019-03-21T23:40:48.821Z,8.60
2019-03-21T23:43:18.635Z,8.50
2019-03-21T23:45:48.747Z,8.30
2019-03-21T23:48:18.537Z,8.20
2019-03-21T23:50:48.341Z,8.00
2019-03-21T23:53:18.183Z,7.90
2019-03-21T23:55:48.347Z,7.80
2019-03-21T23:58:18.198Z,7.80
